sensor_id;sensor_type;location;lat;lon;timestamp;temperature;humidity
17891;DHT22;9071;48.220;14.480;2023-07-08T00:01:21;16.70;99.90
17891;DHT22;9071;48.220;14.480;2023-07-08T00:06:26;16.50;99.90
17891;DHT22;9071;48.220;14.480;2023-07-08T00:11:30;16.40;99.90
17891;DHT22;9071;48.220;14.480;2023-07-08T00:16:32;16.50;99.90
17891;DHT22;9071;48.220;14.480;2023-07-08T00:21:34;16.50;99.90
17891;DHT22;9071;48.220;14.480;2023-07-08T00:26:37;16.40;99.90
17891;DHT22;9071;48.220;14.480;2023-07-08T00:31:39;16.20;99.90
17891;DHT22;9071;48.220;14.480;2023-07-08T00:36:41;16.20;99.90
17891;DHT22;9071;48.220;14.480;2023-07-08T00:41:45;16.20;99.90
17891;DHT22;9071;48.220;14.480;2023-07-08T00:46:55;16.20;99.90
17891;DHT22;9071;48.220;14.480;2023-07-08T00:52:15;16.10;99.90
17891;DHT22;9071;48.220;14.480;2023-07-08T00:57:19;16.00;99.90
17891;DHT22;9071;48.220;14.480;2023-07-08T01:02:25;16.10;99.90
17891;DHT22;9071;48.220;14.480;2023-07-08T01:07:29;16.00;99.90
17891;DHT22;9071;48.220;14.480;2023-07-08T01:12:39;16.00;99.90
17891;DHT22;9071;48.220;14.480;2023-07-08T01:17:43;16.10;99.90
17891;DHT22;9071;48.220;14.480;2023-07-08T01:22:47;16.20;99.90
17891;DHT22;9071;48.220;14.480;2023-07-08T01:27:53;16.50;99.90
17891;DHT22;9071;48.220;14.480;2023-07-08T01:32:59;16.50;99.90
17891;DHT22;9071;48.220;14.480;2023-07-08T01:38:05;16.50;99.90
17891;DHT22;9071;48.220;14.480;2023-07-08T01:43:11;16.20;99.90
17891;DHT22;9071;48.220;14.480;2023-07-08T01:48:16;16.00;99.90
17891;DHT22;9071;48.220;14.480;2023-07-08T01:53:28;16.00;99.90
17891;DHT22;9071;48.220;14.480;2023-07-08T01:58:30;16.10;99.90
17891;DHT22;9071;48.220;14.480;2023-07-08T02:03:32;15.90;99.90
17891;DHT22;9071;48.220;14.480;2023-07-08T02:08:36;15.70;99.90
17891;DHT22;9071;48.220;14.480;2023-07-08T02:13:38;15.50;99.90
17891;DHT22;9071;48.220;14.480;2023-07-08T02:18:40;15.20;99.90
17891;DHT22;9071;48.220;14.480;2023-07-08T02:23:48;15.00;99.90
17891;DHT22;9071;48.220;14.480;2023-07-08T02:28:51;14.90;99.90
17891;DHT22;9071;48.220;14.480;2023-07-08T02:33:53;14.80;99.90
17891;DHT22;9071;48.220;14.480;2023-07-08T02:38:56;14.70;99.90
17891;DHT22;9071;48.220;14.480;2023-07-08T02:43:58;14.70;99.90
17891;DHT22;9071;48.220;14.480;2023-07-08T02:49:01;14.70;99.90
17891;DHT22;9071;48.220;14.480;2023-07-08T02:54:04;14.60;99.90
17891;DHT22;9071;48.220;14.480;2023-07-08T02:59:06;14.50;99.90
17891;DHT22;9071;48.220;14.480;2023-07-08T03:04:08;14.50;99.90
17891;DHT22;9071;48.220;14.480;2023-07-08T03:09:14;14.70;99.90
17891;DHT22;9071;48.220;14.480;2023-07-08T03:14:17;14.60;99.90
17891;DHT22;9071;48.220;14.480;2023-07-08T03:19:19;14.40;99.90
17891;DHT22;9071;48.220;14.480;2023-07-08T03:24:22;14.20;99.90
17891;DHT22;9071;48.220;14.480;2023-07-08T03:29:24;14.00;99.90
17891;DHT22;9071;48.220;14.480;2023-07-08T03:34:26;13.90;99.90
17891;DHT22;9071;48.220;14.480;2023-07-08T03:39:30;13.90;99.90
17891;DHT22;9071;48.220;14.480;2023-07-08T03:44:32;14.00;99.90
17891;DHT22;9071;48.220;14.480;2023-07-08T03:49:34;14.10;99.90
17891;DHT22;9071;48.220;14.480;2023-07-08T03:54:38;14.40;99.90
17891;DHT22;9071;48.220;14.480;2023-07-08T03:59:40;14.50;99.90
17891;DHT22;9071;48.220;14.480;2023-07-08T04:04:42;14.60;99.90
17891;DHT22;9071;48.220;14.480;2023-07-08T04:09:45;15.00;99.90
17891;DHT22;9071;48.220;14.480;2023-07-08T04:14:50;15.60;99.90
17891;DHT22;9071;48.220;14.480;2023-07-08T04:19:53;16.00;99.90
17891;DHT22;9071;48.220;14.480;2023-07-08T04:24:58;16.10;99.90
17891;DHT22;9071;48.220;14.480;2023-07-08T04:30:00;16.20;99.90
17891;DHT22;9071;48.220;14.480;2023-07-08T04:35:04;16.50;99.90
17891;DHT22;9071;48.220;14.480;2023-07-08T04:40:16;16.60;99.90
17891;DHT22;9071;48.220;14.480;2023-07-08T04:45:19;17.00;99.90
17891;DHT22;9071;48.220;14.480;2023-07-08T04:50:22;17.30;99.90
17891;DHT22;9071;48.220;14.480;2023-07-08T04:55:25;17.50;99.90
17891;DHT22;9071;48.220;14.480;2023-07-08T05:00:29;17.70;99.90
17891;DHT22;9071;48.220;14.480;2023-07-08T05:05:31;17.80;99.90
17891;DHT22;9071;48.220;14.480;2023-07-08T05:10:34;18.10;99.90
17891;DHT22;9071;48.220;14.480;2023-07-08T05:15:36;18.30;99.90
17891;DHT22;9071;48.220;14.480;2023-07-08T05:20:38;18.50;99.90
17891;DHT22;9071;48.220;14.480;2023-07-08T05:25:42;18.90;99.90
17891;DHT22;9071;48.220;14.480;2023-07-08T05:30:44;19.40;99.90
17891;DHT22;9071;48.220;14.480;2023-07-08T05:35:46;22.10;99.90
17891;DHT22;9071;48.220;14.480;2023-07-08T05:40:51;25.30;99.90
17891;DHT22;9071;48.220;14.480;2023-07-08T05:45:57;26.30;99.90
17891;DHT22;9071;48.220;14.480;2023-07-08T05:51:00;28.10;99.90
17891;DHT22;9071;48.220;14.480;2023-07-08T05:56:04;29.60;99.90
17891;DHT22;9071;48.220;14.480;2023-07-08T06:01:06;31.10;99.90
17891;DHT22;9071;48.220;14.480;2023-07-08T06:06:08;30.30;99.90
17891;DHT22;9071;48.220;14.480;2023-07-08T06:11:11;30.00;99.90
17891;DHT22;9071;48.220;14.480;2023-07-08T06:16:13;29.60;99.90
17891;DHT22;9071;48.220;14.480;2023-07-08T06:21:16;27.70;99.90
17891;DHT22;9071;48.220;14.480;2023-07-08T06:26:19;27.40;99.90
17891;DHT22;9071;48.220;14.480;2023-07-08T06:31:24;27.30;99.90
17891;DHT22;9071;48.220;14.480;2023-07-08T06:36:26;26.50;99.90
17891;DHT22;9071;48.220;14.480;2023-07-08T06:41:30;25.60;99.90
17891;DHT22;9071;48.220;14.480;2023-07-08T06:46:32;25.50;99.90
17891;DHT22;9071;48.220;14.480;2023-07-08T06:51:34;25.90;99.90
17891;DHT22;9071;48.220;14.480;2023-07-08T06:56:37;25.70;99.90
17891;DHT22;9071;48.220;14.480;2023-07-08T07:01:40;26.40;99.90
17891;DHT22;9071;48.220;14.480;2023-07-08T07:06:42;28.20;99.90
17891;DHT22;9071;48.220;14.480;2023-07-08T07:11:45;30.10;99.90
17891;DHT22;9071;48.220;14.480;2023-07-08T07:16:48;32.30;99.90
17891;DHT22;9071;48.220;14.480;2023-07-08T07:21:50;33.20;99.90
17891;DHT22;9071;48.220;14.480;2023-07-08T07:26:53;33.50;99.90
17891;DHT22;9071;48.220;14.480;2023-07-08T07:31:55;33.20;99.90
17891;DHT22;9071;48.220;14.480;2023-07-08T07:36:57;33.30;99.90
17891;DHT22;9071;48.220;14.480;2023-07-08T07:42:01;31.70;99.90
17891;DHT22;9071;48.220;14.480;2023-07-08T07:47:03;30.70;99.90
17891;DHT22;9071;48.220;14.480;2023-07-08T07:52:06;30.60;99.90
17891;DHT22;9071;48.220;14.480;2023-07-08T07:57:12;32.10;99.90
17891;DHT22;9071;48.220;14.480;2023-07-08T08:02:14;32.40;99.90
17891;DHT22;9071;48.220;14.480;2023-07-08T08:07:17;32.30;99.90
17891;DHT22;9071;48.220;14.480;2023-07-08T08:12:20;32.90;99.90
17891;DHT22;9071;48.220;14.480;2023-07-08T08:17:23;32.70;99.90
17891;DHT22;9071;48.220;14.480;2023-07-08T08:22:25;31.00;99.90
17891;DHT22;9071;48.220;14.480;2023-07-08T08:27:28;29.80;99.90
17891;DHT22;9071;48.220;14.480;2023-07-08T08:32:30;28.90;99.90
17891;DHT22;9071;48.220;14.480;2023-07-08T08:37:32;28.40;99.90
17891;DHT22;9071;48.220;14.480;2023-07-08T08:42:41;28.20;99.90
17891;DHT22;9071;48.220;14.480;2023-07-08T08:47:45;28.60;99.90
17891;DHT22;9071;48.220;14.480;2023-07-08T08:52:48;28.70;99.90
17891;DHT22;9071;48.220;14.480;2023-07-08T08:57:57;29.00;99.90
17891;DHT22;9071;48.220;14.480;2023-07-08T09:03:03;29.00;99.90
17891;DHT22;9071;48.220;14.480;2023-07-08T09:08:13;29.00;99.90
17891;DHT22;9071;48.220;14.480;2023-07-08T09:13:22;28.70;99.90
17891;DHT22;9071;48.220;14.480;2023-07-08T09:18:30;29.00;99.90
17891;DHT22;9071;48.220;14.480;2023-07-08T09:23:35;29.20;99.90
17891;DHT22;9071;48.220;14.480;2023-07-08T09:28:42;29.10;99.90
17891;DHT22;9071;48.220;14.480;2023-07-08T09:33:44;29.10;99.90
17891;DHT22;9071;48.220;14.480;2023-07-08T09:38:48;28.90;99.90
17891;DHT22;9071;48.220;14.480;2023-07-08T09:44:04;28.60;99.90
17891;DHT22;9071;48.220;14.480;2023-07-08T09:49:16;28.80;99.90
17891;DHT22;9071;48.220;14.480;2023-07-08T09:54:23;29.00;99.90
17891;DHT22;9071;48.220;14.480;2023-07-08T09:59:31;29.50;99.90
17891;DHT22;9071;48.220;14.480;2023-07-08T10:04:35;29.90;99.90
17891;DHT22;9071;48.220;14.480;2023-07-08T10:09:37;30.60;99.90
17891;DHT22;9071;48.220;14.480;2023-07-08T10:14:44;30.50;99.90
17891;DHT22;9071;48.220;14.480;2023-07-08T10:19:47;30.50;99.40
17891;DHT22;9071;48.220;14.480;2023-07-08T10:24:59;30.00;98.80
17891;DHT22;9071;48.220;14.480;2023-07-08T10:30:17;30.10;99.90
17891;DHT22;9071;48.220;14.480;2023-07-08T10:35:23;30.60;99.90
17891;DHT22;9071;48.220;14.480;2023-07-08T10:40:42;30.80;99.90
17891;DHT22;9071;48.220;14.480;2023-07-08T10:45:56;31.10;99.90
17891;DHT22;9071;48.220;14.480;2023-07-08T10:51:11;31.70;99.90
17891;DHT22;9071;48.220;14.480;2023-07-08T10:56:18;31.10;99.90
17891;DHT22;9071;48.220;14.480;2023-07-08T11:01:32;31.50;98.90
17891;DHT22;9071;48.220;14.480;2023-07-08T11:06:44;31.60;98.60
17891;DHT22;9071;48.220;14.480;2023-07-08T11:11:51;31.70;99.70
17891;DHT22;9071;48.220;14.480;2023-07-08T11:17:03;31.50;97.30
17891;DHT22;9071;48.220;14.480;2023-07-08T11:22:12;31.50;97.40
17891;DHT22;9071;48.220;14.480;2023-07-08T11:27:21;31.50;97.10
17891;DHT22;9071;48.220;14.480;2023-07-08T11:32:30;31.60;96.60
17891;DHT22;9071;48.220;14.480;2023-07-08T11:37:34;31.40;96.60
17891;DHT22;9071;48.220;14.480;2023-07-08T11:42:40;31.70;98.20
17891;DHT22;9071;48.220;14.480;2023-07-08T11:47:47;31.60;95.60
17891;DHT22;9071;48.220;14.480;2023-07-08T11:52:53;31.40;95.40
17891;DHT22;9071;48.220;14.480;2023-07-08T11:57:56;31.30;96.90
17891;DHT22;9071;48.220;14.480;2023-07-08T12:03:19;31.50;96.80
17891;DHT22;9071;48.220;14.480;2023-07-08T12:08:33;31.60;96.00
17891;DHT22;9071;48.220;14.480;2023-07-08T12:13:38;31.40;95.80
17891;DHT22;9071;48.220;14.480;2023-07-08T12:18:43;31.90;95.00
17891;DHT22;9071;48.220;14.480;2023-07-08T12:23:47;32.30;95.10
17891;DHT22;9071;48.220;14.480;2023-07-08T12:28:49;32.50;96.10
17891;DHT22;9071;48.220;14.480;2023-07-08T12:33:53;32.50;94.70
17891;DHT22;9071;48.220;14.480;2023-07-08T12:38:58;32.20;93.50
17891;DHT22;9071;48.220;14.480;2023-07-08T12:44:02;32.40;93.80
17891;DHT22;9071;48.220;14.480;2023-07-08T12:49:05;33.10;94.00
17891;DHT22;9071;48.220;14.480;2023-07-08T12:54:09;32.60;93.70
17891;DHT22;9071;48.220;14.480;2023-07-08T12:59:17;32.30;94.30
17891;DHT22;9071;48.220;14.480;2023-07-08T13:04:21;32.40;95.40
17891;DHT22;9071;48.220;14.480;2023-07-08T13:09:34;32.40;93.60
17891;DHT22;9071;48.220;14.480;2023-07-08T13:14:37;32.00;93.10
17891;DHT22;9071;48.220;14.480;2023-07-08T13:19:45;32.00;94.10
17891;DHT22;9071;48.220;14.480;2023-07-08T13:24:48;31.90;94.50
17891;DHT22;9071;48.220;14.480;2023-07-08T13:29:51;31.80;94.60
17891;DHT22;9071;48.220;14.480;2023-07-08T13:34:55;32.00;94.10
17891;DHT22;9071;48.220;14.480;2023-07-08T13:39:57;31.70;94.40
17891;DHT22;9071;48.220;14.480;2023-07-08T13:44:59;31.90;93.50
17891;DHT22;9071;48.220;14.480;2023-07-08T13:50:07;32.20;93.90
17891;DHT22;9071;48.220;14.480;2023-07-08T13:55:18;32.50;94.40
17891;DHT22;9071;48.220;14.480;2023-07-08T14:00:20;32.50;92.10
17891;DHT22;9071;48.220;14.480;2023-07-08T14:05:24;32.90;92.90
17891;DHT22;9071;48.220;14.480;2023-07-08T14:10:26;33.00;93.50
17891;DHT22;9071;48.220;14.480;2023-07-08T14:15:28;33.30;92.80
17891;DHT22;9071;48.220;14.480;2023-07-08T14:20:31;33.40;92.20
17891;DHT22;9071;48.220;14.480;2023-07-08T14:25:34;33.30;92.30
17891;DHT22;9071;48.220;14.480;2023-07-08T14:30:41;33.10;91.30
17891;DHT22;9071;48.220;14.480;2023-07-08T14:35:45;32.90;93.00
17891;DHT22;9071;48.220;14.480;2023-07-08T14:40:48;32.80;93.60
17891;DHT22;9071;48.220;14.480;2023-07-08T14:45:53;32.80;94.70
17891;DHT22;9071;48.220;14.480;2023-07-08T14:50:57;32.90;93.20
17891;DHT22;9071;48.220;14.480;2023-07-08T14:56:03;32.60;91.50
17891;DHT22;9071;48.220;14.480;2023-07-08T15:01:18;32.50;91.30
17891;DHT22;9071;48.220;14.480;2023-07-08T15:06:22;32.40;91.20
17891;DHT22;9071;48.220;14.480;2023-07-08T15:11:25;31.90;92.00
17891;DHT22;9071;48.220;14.480;2023-07-08T15:16:27;31.70;93.20
17891;DHT22;9071;48.220;14.480;2023-07-08T15:21:31;31.70;92.40
17891;DHT22;9071;48.220;14.480;2023-07-08T15:26:33;31.50;93.00
17891;DHT22;9071;48.220;14.480;2023-07-08T15:31:35;31.50;92.50
17891;DHT22;9071;48.220;14.480;2023-07-08T15:36:38;31.30;92.50
17891;DHT22;9071;48.220;14.480;2023-07-08T15:41:41;31.10;92.80
17891;DHT22;9071;48.220;14.480;2023-07-08T15:46:45;30.90;92.60
17891;DHT22;9071;48.220;14.480;2023-07-08T15:51:49;30.60;92.30
17891;DHT22;9071;48.220;14.480;2023-07-08T15:56:53;30.60;92.20
17891;DHT22;9071;48.220;14.480;2023-07-08T16:02:09;30.70;92.40
17891;DHT22;9071;48.220;14.480;2023-07-08T16:07:16;30.80;93.10
17891;DHT22;9071;48.220;14.480;2023-07-08T16:12:21;30.80;92.10
17891;DHT22;9071;48.220;14.480;2023-07-08T16:17:24;30.70;92.30
17891;DHT22;9071;48.220;14.480;2023-07-08T16:22:27;30.50;92.40
17891;DHT22;9071;48.220;14.480;2023-07-08T16:27:29;30.50;92.60
17891;DHT22;9071;48.220;14.480;2023-07-08T16:32:31;30.30;92.60
17891;DHT22;9071;48.220;14.480;2023-07-08T16:37:35;30.30;93.60
17891;DHT22;9071;48.220;14.480;2023-07-08T16:42:37;30.30;93.20
17891;DHT22;9071;48.220;14.480;2023-07-08T16:47:40;30.30;93.70
17891;DHT22;9071;48.220;14.480;2023-07-08T16:52:44;30.10;93.50
17891;DHT22;9071;48.220;14.480;2023-07-08T16:57:46;30.10;93.40
17891;DHT22;9071;48.220;14.480;2023-07-08T17:02:49;30.10;93.60
17891;DHT22;9071;48.220;14.480;2023-07-08T17:07:52;30.00;93.30
17891;DHT22;9071;48.220;14.480;2023-07-08T17:12:54;29.90;93.80
17891;DHT22;9071;48.220;14.480;2023-07-08T17:17:58;29.80;93.70
17891;DHT22;9071;48.220;14.480;2023-07-08T17:23:08;29.80;94.40
17891;DHT22;9071;48.220;14.480;2023-07-08T17:28:11;29.60;95.20
17891;DHT22;9071;48.220;14.480;2023-07-08T17:33:14;29.40;96.10
17891;DHT22;9071;48.220;14.480;2023-07-08T17:38:38;29.20;97.10
17891;DHT22;9071;48.220;14.480;2023-07-08T17:43:41;29.00;97.80
17891;DHT22;9071;48.220;14.480;2023-07-08T17:48:43;28.80;98.50
17891;DHT22;9071;48.220;14.480;2023-07-08T17:53:49;28.60;99.10
17891;DHT22;9071;48.220;14.480;2023-07-08T17:58:53;28.40;99.70
17891;DHT22;9071;48.220;14.480;2023-07-08T18:03:56;28.30;99.90
17891;DHT22;9071;48.220;14.480;2023-07-08T18:09:00;28.10;99.90
17891;DHT22;9071;48.220;14.480;2023-07-08T18:14:02;27.90;99.90
17891;DHT22;9071;48.220;14.480;2023-07-08T18:19:04;27.70;99.90
17891;DHT22;9071;48.220;14.480;2023-07-08T18:24:10;27.40;99.90
17891;DHT22;9071;48.220;14.480;2023-07-08T18:29:13;27.10;99.90
17891;DHT22;9071;48.220;14.480;2023-07-08T18:34:15;26.90;99.90
17891;DHT22;9071;48.220;14.480;2023-07-08T18:39:20;26.70;99.90
17891;DHT22;9071;48.220;14.480;2023-07-08T18:44:26;26.50;99.90
17891;DHT22;9071;48.220;14.480;2023-07-08T18:49:29;26.40;99.90
17891;DHT22;9071;48.220;14.480;2023-07-08T18:54:33;26.10;99.90
17891;DHT22;9071;48.220;14.480;2023-07-08T18:59:35;25.80;99.90
17891;DHT22;9071;48.220;14.480;2023-07-08T19:04:37;25.60;99.90
17891;DHT22;9071;48.220;14.480;2023-07-08T19:09:40;25.40;99.90
17891;DHT22;9071;48.220;14.480;2023-07-08T19:14:43;25.30;99.90
17891;DHT22;9071;48.220;14.480;2023-07-08T19:19:45;25.10;99.90
17891;DHT22;9071;48.220;14.480;2023-07-08T19:24:50;25.10;99.90
17891;DHT22;9071;48.220;14.480;2023-07-08T19:29:53;24.90;99.90
17891;DHT22;9071;48.220;14.480;2023-07-08T19:34:55;24.70;99.90
17891;DHT22;9071;48.220;14.480;2023-07-08T19:39:59;24.50;99.90
17891;DHT22;9071;48.220;14.480;2023-07-08T19:45:01;24.40;99.90
17891;DHT22;9071;48.220;14.480;2023-07-08T19:50:03;24.10;99.90
17891;DHT22;9071;48.220;14.480;2023-07-08T19:55:08;23.80;99.90
17891;DHT22;9071;48.220;14.480;2023-07-08T20:00:23;23.60;99.90
17891;DHT22;9071;48.220;14.480;2023-07-08T20:05:27;23.40;99.90
17891;DHT22;9071;48.220;14.480;2023-07-08T20:10:31;23.30;99.90
17891;DHT22;9071;48.220;14.480;2023-07-08T20:15:34;23.20;99.90
17891;DHT22;9071;48.220;14.480;2023-07-08T20:20:39;23.10;99.90
17891;DHT22;9071;48.220;14.480;2023-07-08T20:25:44;22.90;99.90
17891;DHT22;9071;48.220;14.480;2023-07-08T20:30:48;22.60;99.90
17891;DHT22;9071;48.220;14.480;2023-07-08T20:35:51;22.50;99.90
17891;DHT22;9071;48.220;14.480;2023-07-08T20:40:55;22.40;99.90
17891;DHT22;9071;48.220;14.480;2023-07-08T20:45:57;22.50;99.90
17891;DHT22;9071;48.220;14.480;2023-07-08T20:51:01;22.60;99.90
17891;DHT22;9071;48.220;14.480;2023-07-08T20:56:12;22.40;99.90
17891;DHT22;9071;48.220;14.480;2023-07-08T21:01:16;22.20;99.90
17891;DHT22;9071;48.220;14.480;2023-07-08T21:06:21;22.10;99.90
17891;DHT22;9071;48.220;14.480;2023-07-08T21:11:25;22.10;99.90
17891;DHT22;9071;48.220;14.480;2023-07-08T21:16:27;22.00;99.90
17891;DHT22;9071;48.220;14.480;2023-07-08T21:21:30;21.80;99.90
17891;DHT22;9071;48.220;14.480;2023-07-08T21:26:33;21.70;99.90
17891;DHT22;9071;48.220;14.480;2023-07-08T21:31:35;21.40;99.90
17891;DHT22;9071;48.220;14.480;2023-07-08T21:36:39;21.30;99.90
17891;DHT22;9071;48.220;14.480;2023-07-08T21:41:48;21.20;99.90
17891;DHT22;9071;48.220;14.480;2023-07-08T21:46:50;21.10;99.90
17891;DHT22;9071;48.220;14.480;2023-07-08T21:51:52;21.10;99.90
17891;DHT22;9071;48.220;14.480;2023-07-08T21:56:56;21.10;99.90
17891;DHT22;9071;48.220;14.480;2023-07-08T22:01:58;21.00;99.90
17891;DHT22;9071;48.220;14.480;2023-07-08T22:07:00;20.90;99.90
17891;DHT22;9071;48.220;14.480;2023-07-08T22:12:10;20.80;99.90
17891;DHT22;9071;48.220;14.480;2023-07-08T22:17:14;20.70;99.90
17891;DHT22;9071;48.220;14.480;2023-07-08T22:22:19;20.60;99.90
17891;DHT22;9071;48.220;14.480;2023-07-08T22:27:23;20.30;99.90
17891;DHT22;9071;48.220;14.480;2023-07-08T22:32:25;20.20;99.90
17891;DHT22;9071;48.220;14.480;2023-07-08T22:37:27;20.10;99.90
17891;DHT22;9071;48.220;14.480;2023-07-08T22:42:30;19.80;99.90
17891;DHT22;9071;48.220;14.480;2023-07-08T22:47:32;19.60;99.90
17891;DHT22;9071;48.220;14.480;2023-07-08T22:52:36;19.50;99.90
17891;DHT22;9071;48.220;14.480;2023-07-08T22:57:41;19.40;99.90
17891;DHT22;9071;48.220;14.480;2023-07-08T23:02:43;19.20;99.90
17891;DHT22;9071;48.220;14.480;2023-07-08T23:07:45;19.10;99.90
17891;DHT22;9071;48.220;14.480;2023-07-08T23:12:49;18.90;99.90
17891;DHT22;9071;48.220;14.480;2023-07-08T23:17:51;18.80;99.90
17891;DHT22;9071;48.220;14.480;2023-07-08T23:22:53;18.70;99.90
17891;DHT22;9071;48.220;14.480;2023-07-08T23:27:56;18.70;99.90
17891;DHT22;9071;48.220;14.480;2023-07-08T23:32:58;18.60;99.90
17891;DHT22;9071;48.220;14.480;2023-07-08T23:38:00;18.50;99.90
17891;DHT22;9071;48.220;14.480;2023-07-08T23:43:07;18.40;99.90
17891;DHT22;9071;48.220;14.480;2023-07-08T23:48:13;18.30;99.90
17891;DHT22;9071;48.220;14.480;2023-07-08T23:53:17;18.30;99.90
17891;DHT22;9071;48.220;14.480;2023-07-08T23:58:22;18.30;99.90
